Time;durP1;ratioP1;P1;durP2;ratioP2;P2;SDS_P1;SDS_P2;PMS_P1;PMS_P2;Temp;Humidity;BMP_temperature;BMP_pressure;BME280_temperature;BME280_humidity;BME280_pressure;Samples;Min_cycle;Max_cycle;Signal;HPM_P1;HPM_P2
2022/03/12 00:00:43;;;;;;;32.30;21.20;;;9.20;99.90;;;;;;4977485;28;40174;-76
2022/03/12 00:03:10;;;;;;;30.73;20.00;;;9.30;99.90;;;;;;4974769;28;37599;-76
2022/03/12 00:05:47;;;;;;;31.13;20.57;;;9.40;99.90;;;;;;4971884;28;38186;-76
2022/03/12 00:08:15;;;;;;;31.87;21.90;;;9.40;99.90;;;;;;4973688;28;39077;-76
2022/03/12 00:10:43;;;;;;;29.73;20.17;;;9.30;99.90;;;;;;4965027;28;39077;-76
2022/03/12 00:13:12;;;;;;;32.50;21.87;;;9.20;99.90;;;;;;4979983;28;38190;-76
2022/03/12 00:15:38;;;;;;;32.60;21.47;;;9.10;99.90;;;;;;4976940;28;40597;-76
2022/03/12 00:18:06;;;;;;;30.37;20.80;;;9.00;99.90;;;;;;4983192;28;38553;-76
2022/03/12 00:20:34;;;;;;;36.83;22.00;;;9.00;99.90;;;;;;4983083;28;38201;-77
2022/03/12 00:23:01;;;;;;;31.07;21.17;;;8.90;99.90;;;;;;4986313;28;38041;-76
2022/03/12 00:25:27;;;;;;;31.57;22.27;;;8.90;99.90;;;;;;4983497;28;47520;-76
2022/03/12 00:27:53;;;;;;;30.70;21.30;;;8.90;99.90;;;;;;4969894;28;39010;-76
2022/03/12 00:30:22;;;;;;;29.07;21.53;;;8.90;99.90;;;;;;4990365;28;40092;-76
2022/03/12 00:32:53;;;;;;;37.40;22.50;;;8.90;99.90;;;;;;4985524;28;38003;-78
2022/03/12 00:35:20;;;;;;;32.23;23.10;;;8.90;99.90;;;;;;4984683;28;39644;-78
2022/03/12 00:37:47;;;;;;;30.67;22.03;;;8.80;99.90;;;;;;4986425;28;39079;-78
2022/03/12 00:40:16;;;;;;;35.03;22.00;;;8.80;99.90;;;;;;4982529;28;37943;-78
2022/03/12 00:42:42;;;;;;;34.03;23.37;;;8.80;99.90;;;;;;4985681;28;39016;-78
2022/03/12 00:45:10;;;;;;;31.40;22.43;;;8.80;99.90;;;;;;4982243;28;38683;-77
2022/03/12 00:47:36;;;;;;;29.90;21.60;;;8.80;99.90;;;;;;4984573;28;38942;-77
2022/03/12 00:50:03;;;;;;;31.20;22.47;;;8.80;99.90;;;;;;4964624;28;40057;-78
2022/03/12 00:52:29;;;;;;;30.83;21.80;;;8.70;99.90;;;;;;4987274;28;38890;-77
2022/03/12 00:54:55;;;;;;;30.70;22.27;;;8.70;99.90;;;;;;4969555;28;37595;-77
2022/03/12 00:57:21;;;;;;;37.47;23.77;;;8.70;99.90;;;;;;4982148;28;38694;-77
2022/03/12 00:59:48;;;;;;;33.23;22.10;;;8.80;99.90;;;;;;4980531;28;38531;-77
2022/03/12 01:02:15;;;;;;;34.87;22.60;;;8.80;99.90;;;;;;4982057;28;38273;-77
2022/03/12 01:04:43;;;;;;;32.73;22.03;;;8.80;99.90;;;;;;4982829;28;39812;-78
2022/03/12 01:07:10;;;;;;;28.77;19.83;;;8.90;99.90;;;;;;4971603;28;40036;-77
2022/03/12 01:09:38;;;;;;;28.33;20.93;;;9.00;99.90;;;;;;4984941;28;38909;-77
2022/03/12 01:12:04;;;;;;;31.13;20.97;;;9.00;99.90;;;;;;4979704;28;39021;-78
2022/03/12 01:14:30;;;;;;;29.77;20.87;;;9.10;99.90;;;;;;4984048;28;39416;-78
2022/03/12 01:16:58;;;;;;;32.53;20.37;;;9.10;99.90;;;;;;4964696;28;38978;-78
2022/03/12 01:19:25;;;;;;;29.63;19.07;;;9.10;99.90;;;;;;4980871;28;38680;-77
2022/03/12 01:21:52;;;;;;;26.93;18.67;;;9.20;99.90;;;;;;4981879;28;37158;-77
2022/03/12 01:24:19;;;;;;;26.77;19.63;;;9.20;99.90;;;;;;4967939;28;39350;-78
2022/03/12 01:26:45;;;;;;;25.25;18.27;;;9.20;99.90;;;;;;4987766;28;39125;-77
2022/03/12 01:29:11;;;;;;;27.00;19.23;;;9.20;99.90;;;;;;4985407;28;38211;-77
2022/03/12 01:31:38;;;;;;;26.27;17.67;;;9.20;99.90;;;;;;4980380;28;37658;-78
2022/03/12 01:34:04;;;;;;;25.90;17.87;;;9.20;99.90;;;;;;4976474;28;37687;-77
2022/03/12 01:36:31;;;;;;;25.77;17.20;;;9.30;99.90;;;;;;4962359;28;37539;-77
2022/03/12 01:38:58;;;;;;;25.80;16.27;;;9.30;99.90;;;;;;4978357;28;38636;-77
2022/03/12 01:41:33;;;;;;;22.23;16.42;;;9.30;99.90;;;;;;4957054;28;36296;-77
2022/03/12 01:44:02;;;;;;;26.23;15.82;;;9.40;99.90;;;;;;4976688;28;37223;-77
2022/03/12 01:46:33;;;;;;;21.60;14.93;;;9.50;99.90;;;;;;4976304;28;48325;-77
2022/03/12 01:49:03;;;;;;;24.03;15.17;;;9.50;99.90;;;;;;4982356;28;37762;-78
2022/03/12 01:51:29;;;;;;;23.10;15.67;;;9.50;99.90;;;;;;4980306;28;47048;-78
2022/03/12 01:53:56;;;;;;;23.75;16.83;;;9.60;99.90;;;;;;4982297;28;39289;-78
2022/03/12 01:56:27;;;;;;;20.53;14.47;;;9.60;99.90;;;;;;4983635;28;38585;-78
2022/03/12 01:58:54;;;;;;;21.80;14.90;;;9.60;99.90;;;;;;4960924;28;40004;-77
2022/03/12 02:01:21;;;;;;;21.13;15.07;;;9.60;99.90;;;;;;4981033;28;37206;-77
2022/03/12 02:03:48;;;;;;;20.53;14.57;;;9.60;99.90;;;;;;4977867;28;39603;-77
2022/03/12 02:06:19;;;;;;;21.53;14.93;;;9.60;99.90;;;;;;4972466;28;38265;-78
2022/03/12 02:08:48;;;;;;;18.87;14.03;;;9.60;99.90;;;;;;4986281;28;37862;-78
2022/03/12 02:11:27;;;;;;;21.67;14.00;;;9.70;99.90;;;;;;4966892;28;38312;-78
2022/03/12 02:13:58;;;;;;;21.67;14.23;;;9.70;99.90;;;;;;4991246;28;39196;-79
2022/03/12 02:16:24;;;;;;;22.50;13.85;;;9.70;99.90;;;;;;4967177;28;39381;-78
2022/03/12 02:18:50;;;;;;;19.15;12.93;;;9.70;99.90;;;;;;4963540;28;38772;-78
2022/03/12 02:21:49;;;;;;;17.00;12.45;;;9.80;99.90;;;;;;4983789;28;37048;-78
2022/03/12 02:24:17;;;;;;;15.30;11.63;;;9.80;99.90;;;;;;4968300;28;40888;-77
2022/03/12 02:26:45;;;;;;;18.08;12.45;;;9.90;99.90;;;;;;4981452;28;38415;-77
2022/03/12 02:29:15;;;;;;;14.63;11.33;;;9.90;99.90;;;;;;4984148;28;37874;-78
2022/03/12 02:31:45;;;;;;;14.57;11.18;;;9.90;99.90;;;;;;4981021;28;37942;-77
2022/03/12 02:34:12;;;;;;;17.00;10.82;;;10.00;99.90;;;;;;4982232;28;40520;-78
2022/03/12 02:36:39;;;;;;;13.07;10.00;;;10.00;99.90;;;;;;4980902;28;39439;-77
2022/03/12 02:39:07;;;;;;;11.80;9.30;;;10.00;99.90;;;;;;4982738;28;38063;-78
2022/03/12 02:41:33;;;;;;;10.85;9.63;;;10.00;99.90;;;;;;4964129;28;39006;-77
2022/03/12 02:44:00;;;;;;;10.70;8.88;;;10.10;99.90;;;;;;4983276;28;40019;-77
2022/03/12 02:46:28;;;;;;;13.95;8.77;;;10.00;99.90;;;;;;4979479;28;36332;-77
2022/03/12 02:48:56;;;;;;;9.95;8.68;;;10.00;99.90;;;;;;4980128;28;38419;-78
2022/03/12 02:51:22;;;;;;;11.32;8.98;;;10.10;99.90;;;;;;4981178;28;36820;-77
2022/03/12 02:53:56;;;;;;;11.60;9.20;;;10.00;99.90;;;;;;4967388;28;39364;-77
2022/03/12 02:56:26;;;;;;;10.65;8.75;;;10.00;99.90;;;;;;4981653;28;39735;-78
2022/03/12 02:58:53;;;;;;;11.63;8.68;;;10.10;99.90;;;;;;4958056;28;37395;-78
2022/03/12 03:01:19;;;;;;;11.20;8.00;;;10.10;99.90;;;;;;4975836;28;39032;-78
2022/03/12 03:03:46;;;;;;;9.68;7.68;;;10.10;99.90;;;;;;4962494;28;39135;-78
2022/03/12 03:06:14;;;;;;;9.10;7.20;;;10.10;99.90;;;;;;4976790;28;38660;-77
2022/03/12 03:08:41;;;;;;;9.32;7.20;;;10.10;99.90;;;;;;4978902;28;38107;-80
2022/03/12 03:11:15;;;;;;;7.82;7.03;;;10.10;99.90;;;;;;4972399;28;37771;-77
2022/03/12 03:13:44;;;;;;;11.05;6.93;;;10.10;99.90;;;;;;4963655;28;39088;-78
2022/03/12 03:16:21;;;;;;;9.40;7.25;;;10.10;99.90;;;;;;4975464;28;37514;-79
2022/03/12 03:18:53;;;;;;;10.60;7.00;;;10.10;99.90;;;;;;4978788;28;38982;-78
2022/03/12 03:21:24;;;;;;;11.02;7.68;;;10.00;99.90;;;;;;4970321;28;36205;-78
2022/03/12 03:23:51;;;;;;;10.63;6.97;;;10.00;99.90;;;;;;4983863;28;39346;-78
2022/03/12 03:26:39;;;;;;;8.20;6.60;;;10.00;99.90;;;;;;4964912;28;37721;-78
2022/03/12 03:29:05;;;;;;;8.55;6.45;;;10.00;99.90;;;;;;4963702;28;37145;-77
2022/03/12 03:31:31;;;;;;;8.95;7.63;;;9.90;99.90;;;;;;4967360;28;37539;-78
2022/03/12 03:33:57;;;;;;;9.15;7.05;;;9.90;99.90;;;;;;4964868;28;37653;-78
2022/03/12 03:36:24;;;;;;;9.20;7.23;;;9.80;99.90;;;;;;4980432;28;38447;-78
2022/03/12 03:38:50;;;;;;;8.90;6.50;;;9.70;99.90;;;;;;4982057;28;36933;-77
2022/03/12 03:41:17;;;;;;;9.13;7.03;;;9.70;99.90;;;;;;4984595;28;40707;-78
2022/03/12 03:43:47;;;;;;;8.47;6.70;;;9.60;99.90;;;;;;4981038;28;38839;-77
2022/03/12 03:46:21;;;;;;;9.47;6.93;;;9.60;99.90;;;;;;4982328;28;39669;-77
2022/03/12 03:48:49;;;;;;;8.20;6.20;;;9.60;99.90;;;;;;4982766;28;39007;-77
2022/03/12 03:51:16;;;;;;;8.07;6.60;;;9.50;99.90;;;;;;4984350;28;36536;-77
2022/03/12 03:53:42;;;;;;;8.50;6.90;;;9.50;99.90;;;;;;4986868;28;39114;-77
2022/03/12 03:56:08;;;;;;;7.83;6.47;;;9.50;99.90;;;;;;4985216;28;39073;-78
2022/03/12 03:58:37;;;;;;;7.43;6.43;;;9.50;99.90;;;;;;4963317;28;39964;-77
2022/03/12 04:01:06;;;;;;;7.80;6.37;;;9.40;99.90;;;;;;4984400;28;36294;-77
2022/03/12 04:03:33;;;;;;;8.50;6.70;;;9.40;99.90;;;;;;4979261;28;38845;-77
2022/03/12 04:06:01;;;;;;;9.07;6.70;;;9.40;99.90;;;;;;4981274;28;36843;-78
2022/03/12 04:08:28;;;;;;;7.93;6.67;;;9.50;99.90;;;;;;4965246;28;47275;-77
2022/03/12 04:10:54;;;;;;;9.82;6.80;;;9.50;99.90;;;;;;4982994;28;36653;-78
2022/03/12 04:13:21;;;;;;;8.48;6.50;;;9.50;99.90;;;;;;4984250;28;39803;-77
2022/03/12 04:15:49;;;;;;;7.93;6.07;;;9.50;99.90;;;;;;4981600;28;37493;-77
2022/03/12 04:18:15;;;;;;;9.43;6.17;;;9.50;99.90;;;;;;4979775;28;37736;-77
2022/03/12 04:20:47;;;;;;;8.57;6.63;;;9.40;99.90;;;;;;4985641;28;37140;-77
2022/03/12 04:23:21;;;;;;;8.90;6.50;;;9.40;99.90;;;;;;4982017;28;37755;-77
2022/03/12 04:25:48;;;;;;;9.50;6.47;;;9.30;99.90;;;;;;4984188;28;37644;-77
2022/03/12 04:28:14;;;;;;;8.03;6.80;;;9.30;99.90;;;;;;4987064;28;38102;-77
2022/03/12 04:30:41;;;;;;;8.87;5.80;;;9.30;99.90;;;;;;4984879;28;38333;-77
2022/03/12 04:33:10;;;;;;;7.83;6.43;;;9.30;99.90;;;;;;4983704;28;38816;-78
2022/03/12 04:35:38;;;;;;;8.03;6.37;;;9.20;99.90;;;;;;4982592;28;37393;-77
2022/03/12 04:38:04;;;;;;;7.77;6.47;;;9.20;99.90;;;;;;4968877;28;37157;-77
2022/03/12 04:40:30;;;;;;;8.33;6.60;;;9.20;99.90;;;;;;4982304;28;36207;-76
2022/03/12 04:42:56;;;;;;;8.10;7.03;;;9.20;99.90;;;;;;4985722;28;37635;-77
2022/03/12 04:45:25;;;;;;;8.70;6.67;;;9.10;99.90;;;;;;4965310;28;37611;-77
2022/03/12 04:47:54;;;;;;;10.83;6.47;;;9.10;99.90;;;;;;4968840;28;38171;-77
2022/03/12 04:50:21;;;;;;;10.53;7.00;;;9.10;99.90;;;;;;4985490;28;37245;-77
2022/03/12 04:52:50;;;;;;;8.03;6.33;;;9.10;99.90;;;;;;4978809;28;39161;-77
2022/03/12 04:55:21;;;;;;;8.80;6.40;;;9.10;99.90;;;;;;4978096;28;37864;-76
2022/03/12 04:57:48;;;;;;;8.00;6.13;;;9.10;99.90;;;;;;4982214;28;39589;-77
2022/03/12 05:00:28;;;;;;;11.03;6.70;;;9.10;99.90;;;;;;4962788;28;38351;-77
2022/03/12 05:03:09;;;;;;;7.67;5.60;;;9.10;99.90;;;;;;4983741;28;38266;-77
2022/03/12 05:05:44;;;;;;;6.57;5.63;;;9.00;99.90;;;;;;4981357;28;49106;-77
2022/03/12 05:08:22;;;;;;;9.20;6.43;;;9.00;99.90;;;;;;4978690;28;36985;-77
2022/03/12 05:10:51;;;;;;;6.63;5.43;;;9.00;99.90;;;;;;4962402;28;36468;-77
2022/03/12 05:13:27;;;;;;;9.40;5.60;;;9.00;99.90;;;;;;4963405;28;37852;-77
2022/03/12 05:15:56;;;;;;;7.97;5.67;;;9.00;99.90;;;;;;4981104;28;37783;-77
2022/03/12 05:18:25;;;;;;;9.37;6.07;;;8.90;99.90;;;;;;4966335;28;37968;-77
2022/03/12 05:20:52;;;;;;;9.13;6.67;;;8.90;99.90;;;;;;4984125;28;38125;-77
2022/03/12 05:23:19;;;;;;;8.07;6.20;;;8.80;99.90;;;;;;4982046;28;39199;-77
2022/03/12 05:25:47;;;;;;;9.87;6.80;;;8.80;99.90;;;;;;4983836;28;38362;-77
2022/03/12 05:28:19;;;;;;;8.27;6.60;;;8.80;99.90;;;;;;4985052;28;39002;-78
2022/03/12 05:30:46;;;;;;;8.00;6.43;;;8.80;99.90;;;;;;4980665;28;37329;-78
2022/03/12 05:33:13;;;;;;;8.67;6.43;;;8.80;99.90;;;;;;4984470;28;37647;-77
2022/03/12 05:35:42;;;;;;;9.50;6.60;;;8.70;99.90;;;;;;4982999;28;37662;-77
2022/03/12 05:38:11;;;;;;;10.30;6.20;;;8.70;99.90;;;;;;4968031;28;36081;-78
2022/03/12 05:40:39;;;;;;;10.23;6.43;;;8.70;99.90;;;;;;4957459;28;36208;-77
2022/03/12 05:43:12;;;;;;;10.57;6.53;;;8.70;99.90;;;;;;4978574;28;37918;-77
2022/03/12 05:45:39;;;;;;;11.38;6.28;;;8.80;99.90;;;;;;4967942;28;38778;-77
2022/03/12 05:48:08;;;;;;;10.33;5.90;;;8.80;99.90;;;;;;4983064;28;38289;-77
2022/03/12 05:50:38;;;;;;;6.70;5.83;;;8.80;99.90;;;;;;4970967;28;35475;-77
2022/03/12 05:53:09;;;;;;;9.30;6.20;;;8.80;99.90;;;;;;4982811;28;39433;-78
2022/03/12 05:55:39;;;;;;;7.10;5.73;;;8.90;99.90;;;;;;4986120;28;38529;-77
2022/03/12 05:58:10;;;;;;;8.93;6.00;;;8.90;99.90;;;;;;4965837;28;38221;-78
2022/03/12 06:00:39;;;;;;;10.53;6.40;;;8.90;99.90;;;;;;4964359;28;36733;-77
2022/03/12 06:03:06;;;;;;;10.13;5.43;;;8.90;99.90;;;;;;4963281;28;39018;-77
2022/03/12 06:05:35;;;;;;;8.67;5.97;;;9.10;99.90;;;;;;4982652;28;38295;-78
2022/03/12 06:08:01;;;;;;;12.30;4.80;;;9.20;99.90;;;;;;4983783;28;38223;-78
2022/03/12 06:10:29;;;;;;;7.70;4.80;;;9.30;99.90;;;;;;4977556;28;46715;-77
2022/03/12 06:12:58;;;;;;;8.83;5.03;;;9.30;99.90;;;;;;4962969;28;39649;-78
2022/03/12 06:15:26;;;;;;;8.70;4.67;;;9.40;99.90;;;;;;4981468;28;38192;-77
2022/03/12 06:17:53;;;;;;;8.43;4.80;;;9.40;99.90;;;;;;4980846;28;38026;-77
2022/03/12 06:20:21;;;;;;;7.97;4.47;;;9.30;99.90;;;;;;4969125;28;35888;-77
2022/03/12 06:22:49;;;;;;;8.60;4.73;;;9.20;99.90;;;;;;4984221;28;37382;-78
2022/03/12 06:25:19;;;;;;;8.87;5.27;;;9.20;99.90;;;;;;4984838;28;38603;-77
2022/03/12 06:27:53;;;;;;;10.80;5.30;;;9.20;99.90;;;;;;4967090;28;37411;-77
2022/03/12 06:30:22;;;;;;;11.50;6.07;;;9.20;99.90;;;;;;4982050;28;37189;-77
2022/03/12 06:32:48;;;;;;;9.03;4.87;;;9.20;99.90;;;;;;4965810;28;39826;-76
2022/03/12 06:35:16;;;;;;;7.90;5.10;;;9.20;99.90;;;;;;4978349;28;39761;-77
2022/03/12 06:37:42;;;;;;;8.90;5.00;;;9.20;99.90;;;;;;4979299;28;38613;-77
2022/03/12 06:40:11;;;;;;;11.50;5.77;;;9.20;99.90;;;;;;4979342;28;36301;-77
2022/03/12 06:42:39;;;;;;;9.67;5.07;;;9.20;99.90;;;;;;4982142;28;38318;-77
2022/03/12 06:45:08;;;;;;;13.83;6.77;;;9.20;99.90;;;;;;4975964;28;37684;-76
2022/03/12 06:47:38;;;;;;;9.37;5.27;;;9.20;99.90;;;;;;4985021;28;38309;-77
2022/03/12 06:50:08;;;;;;;11.25;5.28;;;9.10;99.90;;;;;;4964174;28;37132;-77
2022/03/12 06:52:35;;;;;;;10.23;5.57;;;9.10;99.90;;;;;;4962102;28;39501;-76
2022/03/12 06:55:02;;;;;;;8.70;5.67;;;9.10;99.90;;;;;;4980718;28;40239;-77
2022/03/12 06:57:28;;;;;;;8.00;5.03;;;9.00;99.90;;;;;;4979622;28;37263;-77
2022/03/12 06:59:54;;;;;;;10.97;6.47;;;9.00;99.90;;;;;;4969076;28;35596;-77
2022/03/12 07:02:20;;;;;;;10.03;6.13;;;8.90;99.90;;;;;;4963357;28;38653;-77
2022/03/12 07:04:46;;;;;;;7.13;5.63;;;9.00;99.90;;;;;;4969088;28;38012;-77
2022/03/12 07:07:12;;;;;;;8.47;5.87;;;9.00;99.90;;;;;;4967634;28;35830;-77
2022/03/12 07:09:38;;;;;;;9.63;5.87;;;9.00;99.90;;;;;;4967922;28;38129;-77
2022/03/12 07:12:05;;;;;;;9.03;5.97;;;9.00;99.90;;;;;;4975012;28;39062;-77
2022/03/12 07:14:32;;;;;;;9.97;5.80;;;9.10;99.90;;;;;;4979510;28;38706;-76
2022/03/12 07:16:58;;;;;;;6.63;5.60;;;9.10;99.90;;;;;;4962242;28;38821;-77
2022/03/12 07:19:25;;;;;;;11.30;6.18;;;9.20;99.90;;;;;;4967307;28;37789;-77
2022/03/12 07:21:51;;;;;;;8.80;5.57;;;9.20;99.90;;;;;;4973144;28;40957;-77
2022/03/12 07:24:21;;;;;;;11.00;6.20;;;9.30;99.90;;;;;;4977705;28;39951;-77
2022/03/12 07:26:47;;;;;;;7.67;5.20;;;9.30;99.90;;;;;;4963374;28;38914;-77
2022/03/12 07:29:13;;;;;;;9.90;5.77;;;9.40;99.90;;;;;;4964853;28;37365;-77
2022/03/12 07:31:39;;;;;;;8.80;5.30;;;9.40;99.90;;;;;;4965374;28;38772;-77
2022/03/12 07:34:07;;;;;;;10.47;4.57;;;9.40;99.90;;;;;;4977187;28;39229;-77
2022/03/12 07:36:33;;;;;;;9.30;4.90;;;9.50;99.90;;;;;;4978242;28;42314;-77
2022/03/12 07:39:02;;;;;;;8.32;5.05;;;9.50;99.90;;;;;;4966870;28;37036;-77
2022/03/12 07:41:30;;;;;;;10.23;5.53;;;9.50;99.90;;;;;;4970921;28;48642;-77
2022/03/12 07:43:56;;;;;;;9.83;5.10;;;9.50;99.90;;;;;;4976078;28;39340;-77
2022/03/12 07:46:22;;;;;;;9.97;5.87;;;9.50;99.90;;;;;;4954072;28;38897;-77
2022/03/12 07:48:49;;;;;;;9.40;5.23;;;9.50;99.90;;;;;;4974713;28;37156;-77
2022/03/12 07:51:15;;;;;;;9.13;5.30;;;9.60;99.90;;;;;;4973580;28;39593;-77
2022/03/12 07:53:42;;;;;;;10.83;5.83;;;9.60;99.90;;;;;;4972477;28;39599;-78
2022/03/12 07:56:09;;;;;;;9.10;5.23;;;9.70;99.90;;;;;;4976953;28;38443;-77
2022/03/12 07:58:36;;;;;;;7.07;4.87;;;9.70;99.90;;;;;;4956243;28;37883;-77
2022/03/12 08:01:03;;;;;;;9.40;4.43;;;9.80;99.90;;;;;;4953861;28;39609;-76
2022/03/12 08:03:29;;;;;;;6.27;4.43;;;9.80;99.90;;;;;;4971537;28;38546;-76
2022/03/12 08:05:57;;;;;;;9.20;4.55;;;9.90;99.90;;;;;;4960063;28;38888;-77
2022/03/12 08:08:23;;;;;;;8.50;3.93;;;9.90;99.90;;;;;;4957345;28;38193;-77
2022/03/12 08:13:36;;;;;;;8.80;4.13;;;10.10;99.90;;;;;;4957127;28;49215;-77
2022/03/12 08:16:02;;;;;;;11.85;4.75;;;10.10;99.90;;;;;;4964243;28;38651;-78
2022/03/12 08:18:28;;;;;;;7.03;4.38;;;10.20;99.90;;;;;;4972161;28;37616;-77
2022/03/12 08:20:54;;;;;;;9.50;4.40;;;10.20;99.90;;;;;;4973930;28;40580;-77
2022/03/12 08:23:21;;;;;;;10.15;5.15;;;10.10;99.90;;;;;;4960324;28;38863;-77
2022/03/12 08:25:48;;;;;;;8.82;4.95;;;10.20;99.90;;;;;;4964209;28;38661;-77
2022/03/12 08:28:14;;;;;;;9.35;4.90;;;10.20;99.90;;;;;;4965860;28;38597;-77
2022/03/12 08:30:41;;;;;;;8.75;5.00;;;10.20;99.90;;;;;;4966391;28;39890;-77
2022/03/12 08:33:07;;;;;;;8.18;5.43;;;10.30;99.90;;;;;;4969392;28;38455;-77
2022/03/12 08:35:33;;;;;;;9.13;5.25;;;10.30;99.90;;;;;;4959282;28;38159;-76
2022/03/12 08:37:59;;;;;;;7.93;4.97;;;10.40;99.90;;;;;;4971366;28;37892;-76
2022/03/12 08:40:25;;;;;;;7.95;5.22;;;10.50;99.90;;;;;;4958646;28;38751;-77
2022/03/12 08:42:53;;;;;;;8.05;4.82;;;10.50;99.90;;;;;;4956825;28;37734;-75
2022/03/12 08:45:19;;;;;;;10.38;5.45;;;10.60;99.90;;;;;;4963243;28;36930;-75
2022/03/12 08:47:46;;;;;;;8.05;3.95;;;10.60;99.90;;;;;;4960308;28;37936;-76
2022/03/12 08:50:13;;;;;;;6.45;3.95;;;10.60;99.90;;;;;;4977047;28;39663;-76
2022/03/12 08:52:41;;;;;;;11.02;3.55;;;10.60;99.90;;;;;;4961344;28;39025;-76
2022/03/12 08:55:08;;;;;;;8.52;3.17;;;10.60;99.90;;;;;;4980786;28;39048;-76
2022/03/12 08:57:34;;;;;;;9.73;3.00;;;10.70;99.90;;;;;;4967366;28;36046;-76
2022/03/12 09:00:00;;;;;;;7.10;2.63;;;10.80;99.90;;;;;;4962516;28;39888;-76
2022/03/12 09:02:28;;;;;;;5.50;2.22;;;10.80;99.90;;;;;;4963967;28;38772;-79
2022/03/12 09:04:54;;;;;;;6.32;3.03;;;10.80;99.90;;;;;;4968734;28;37832;-76
2022/03/12 09:07:20;;;;;;;8.32;2.40;;;10.70;99.90;;;;;;4955382;28;36964;-76
2022/03/12 09:09:46;;;;;;;6.82;2.55;;;10.80;99.90;;;;;;4963385;28;40320;-77
2022/03/12 09:12:13;;;;;;;8.23;2.30;;;10.70;99.90;;;;;;4959884;28;38880;-77
2022/03/12 09:14:39;;;;;;;11.00;2.70;;;10.80;99.90;;;;;;4976263;28;36822;-74
2022/03/12 09:17:05;;;;;;;9.70;2.97;;;10.70;99.90;;;;;;4957030;28;37261;-74
2022/03/12 09:19:32;;;;;;;8.77;2.65;;;10.80;99.90;;;;;;4961015;28;38814;-76
2022/03/12 09:21:59;;;;;;;7.32;2.40;;;10.90;99.90;;;;;;4972944;28;38532;-74
2022/03/12 09:24:26;;;;;;;9.10;2.55;;;10.90;99.90;;;;;;4973638;28;37092;-75
2022/03/12 09:26:52;;;;;;;5.13;2.30;;;10.80;99.90;;;;;;4978869;28;36711;-76
2022/03/12 09:29:18;;;;;;;6.18;2.17;;;10.70;99.90;;;;;;4975054;28;37585;-77
2022/03/12 09:31:44;;;;;;;9.30;2.92;;;10.80;99.90;;;;;;4961973;28;39915;-73
2022/03/12 09:34:10;;;;;;;6.43;2.40;;;10.90;99.90;;;;;;4964804;28;38755;-75
2022/03/12 09:36:39;;;;;;;6.57;2.70;;;10.90;99.90;;;;;;4963404;28;37349;-76
2022/03/12 09:39:06;;;;;;;8.90;2.97;;;10.90;99.90;;;;;;4959799;28;40571;-79
2022/03/12 09:41:38;;;;;;;7.93;2.97;;;10.90;99.90;;;;;;4984410;28;37382;-79
2022/03/12 09:44:05;;;;;;;6.28;2.30;;;10.90;99.90;;;;;;4964482;28;36589;-77
2022/03/12 09:46:33;;;;;;;13.70;2.53;;;10.80;99.90;;;;;;4972376;28;20079;-77
2022/03/12 09:48:59;;;;;;;8.05;2.22;;;10.90;99.90;;;;;;4959140;28;39657;-77
2022/03/12 09:51:28;;;;;;;6.70;2.38;;;11.10;99.90;;;;;;4966202;28;38663;-77
2022/03/12 09:53:55;;;;;;;8.13;2.40;;;11.20;99.90;;;;;;4982178;28;40065;-76
2022/03/12 09:56:21;;;;;;;5.70;2.30;;;11.30;99.90;;;;;;4982587;28;37850;-77
2022/03/12 09:58:47;;;;;;;5.95;2.20;;;11.50;99.90;;;;;;4967944;28;40341;-77
2022/03/12 10:01:14;;;;;;;11.57;2.63;;;11.70;99.90;;;;;;4963530;28;40167;-78
2022/03/12 10:03:42;;;;;;;7.95;2.45;;;11.60;99.90;;;;;;4984166;28;38800;-77
2022/03/12 10:06:08;;;;;;;8.38;2.58;;;11.50;99.90;;;;;;4973507;28;38411;-76
2022/03/12 10:08:34;;;;;;;3.92;2.20;;;11.60;99.90;;;;;;4983754;28;38827;-77
2022/03/12 10:11:01;;;;;;;3.60;2.17;;;11.70;99.90;;;;;;4988896;28;39133;-77
2022/03/12 10:13:27;;;;;;;6.45;2.28;;;11.50;99.90;;;;;;4988472;28;48983;-77
2022/03/12 10:15:53;;;;;;;8.45;2.45;;;11.40;99.90;;;;;;4985143;28;35387;-77
2022/03/12 10:18:20;;;;;;;5.35;2.20;;;11.50;99.90;;;;;;4985903;28;38505;-77
2022/03/12 10:20:50;;;;;;;4.70;2.13;;;11.60;99.90;;;;;;4986331;28;39047;-77
2022/03/12 10:23:16;;;;;;;6.22;2.55;;;11.80;99.90;;;;;;4978502;28;38571;-77
2022/03/12 10:25:45;;;;;;;9.13;2.25;;;11.70;99.90;;;;;;4977241;28;38320;-76
2022/03/12 10:28:12;;;;;;;7.22;2.85;;;11.70;99.90;;;;;;4985122;28;38763;-77
2022/03/12 10:30:41;;;;;;;6.15;2.40;;;11.80;99.90;;;;;;4988387;28;38215;-77
2022/03/12 10:33:08;;;;;;;5.97;2.60;;;11.70;99.90;;;;;;4987124;28;39624;-78
2022/03/12 10:35:37;;;;;;;9.18;2.20;;;11.90;99.90;;;;;;4989594;28;37215;-77
2022/03/12 10:38:10;;;;;;;6.07;2.17;;;11.80;99.90;;;;;;4989452;28;39842;-78
2022/03/12 10:40:36;;;;;;;7.03;2.65;;;11.80;99.90;;;;;;4989997;28;40540;-76
2022/03/12 10:43:12;;;;;;;3.95;2.15;;;11.90;99.90;;;;;;4990606;28;38168;-76
2022/03/12 10:45:47;;;;;;;6.30;2.17;;;12.10;99.90;;;;;;4989374;28;37704;-77
2022/03/12 10:48:19;;;;;;;6.00;2.42;;;12.10;99.90;;;;;;4983939;28;38618;-77
2022/03/12 10:50:48;;;;;;;5.72;2.40;;;12.00;99.90;;;;;;4987272;28;38965;-77
2022/03/12 10:53:15;;;;;;;7.38;2.60;;;12.10;99.90;;;;;;4985461;28;39021;-77
2022/03/12 10:55:47;;;;;;;9.02;2.38;;;12.30;99.90;;;;;;4987856;28;38357;-77
2022/03/12 10:58:18;;;;;;;7.30;2.45;;;12.30;99.90;;;;;;4955715;28;39298;-79
2022/03/12 11:00:50;;;;;;;8.95;3.08;;;12.40;99.90;;;;;;4986461;28;38863;-79
2022/03/12 11:03:25;;;;;;;6.38;2.42;;;12.40;99.90;;;;;;4973966;28;39197;-78
2022/03/12 11:05:53;;;;;;;8.88;2.67;;;12.40;99.90;;;;;;4987222;28;37215;-78
2022/03/12 11:08:23;;;;;;;10.98;2.65;;;12.40;99.90;;;;;;4984707;28;40222;-77
2022/03/12 11:10:58;;;;;;;7.80;2.50;;;12.70;99.90;;;;;;4987776;28;37374;-79
2022/03/12 11:13:47;;;;;;;7.75;2.42;;;12.50;99.90;;;;;;4975481;28;38359;-78
2022/03/12 11:16:24;;;;;;;7.22;2.70;;;12.50;99.90;;;;;;4988292;28;36856;-79
2022/03/12 11:18:53;;;;;;;7.18;2.92;;;12.50;99.90;;;;;;4988307;28;38880;-78
2022/03/12 11:21:44;;;;;;;5.20;2.25;;;12.60;99.90;;;;;;4973519;28;37150;-77
2022/03/12 11:24:17;;;;;;;6.50;3.00;;;12.80;99.90;;;;;;4986396;28;37968;-79
2022/03/12 11:26:46;;;;;;;6.32;2.50;;;12.70;99.90;;;;;;4974232;28;36198;-78
2022/03/12 11:29:14;;;;;;;5.57;2.80;;;12.70;99.90;;;;;;4980945;28;38337;-78
2022/03/12 11:31:48;;;;;;;7.95;2.70;;;12.70;99.90;;;;;;4998003;28;36768;-78
2022/03/12 11:34:24;;;;;;;7.03;2.67;;;12.50;99.90;;;;;;4984069;28;38845;-78
2022/03/12 11:37:08;;;;;;;5.57;2.40;;;12.30;99.90;;;;;;4996146;28;37889;-79
2022/03/12 11:39:48;;;;;;;5.60;2.08;;;12.30;99.90;;;;;;4986536;28;48780;-77
2022/03/12 11:42:20;;;;;;;5.53;2.50;;;12.70;99.90;;;;;;4991443;28;37286;-78
2022/03/12 11:44:56;;;;;;;7.22;2.28;;;12.80;99.90;;;;;;4973082;28;37899;-78
2022/03/12 11:47:30;;;;;;;5.47;2.58;;;12.90;99.90;;;;;;4995202;28;39279;-78
2022/03/12 11:50:03;;;;;;;5.72;1.88;;;12.70;99.90;;;;;;4978283;28;38647;-77
2022/03/12 11:52:31;;;;;;;8.15;2.30;;;12.70;99.90;;;;;;4985210;28;48633;-79
2022/03/12 11:55:00;;;;;;;4.28;2.75;;;12.70;99.90;;;;;;4969933;28;38797;-78
2022/03/12 11:57:30;;;;;;;6.78;2.50;;;13.10;99.90;;;;;;4967488;28;37743;-78
2022/03/12 11:59:57;;;;;;;3.70;1.92;;;13.30;99.90;;;;;;4954039;28;38345;-78
2022/03/12 12:02:24;;;;;;;5.47;2.50;;;13.40;99.90;;;;;;4948503;28;37626;-78
2022/03/12 12:04:52;;;;;;;5.60;2.25;;;13.40;99.90;;;;;;4969384;28;39026;-81
2022/03/12 12:07:23;;;;;;;4.70;1.92;;;13.70;99.90;;;;;;4970406;28;37131;-78
2022/03/12 12:09:50;;;;;;;7.65;2.28;;;13.40;99.90;;;;;;4959417;28;37860;-79
2022/03/12 12:12:16;;;;;;;5.85;2.92;;;13.60;99.90;;;;;;4967128;28;37110;-78
2022/03/12 12:14:45;;;;;;;7.07;2.40;;;13.60;99.90;;;;;;4969800;28;38241;-80
2022/03/12 12:17:12;;;;;;;5.60;1.85;;;13.70;99.90;;;;;;4964012;28;37566;-81
2022/03/12 12:19:38;;;;;;;3.47;1.48;;;13.80;99.90;;;;;;4955154;28;37923;-80
2022/03/12 12:22:09;;;;;;;4.65;1.65;;;13.70;99.90;;;;;;4975414;28;39870;-79
2022/03/12 12:24:39;;;;;;;6.50;1.80;;;13.40;99.90;;;;;;4969716;28;38125;-78
2022/03/12 12:27:08;;;;;;;8.10;2.22;;;13.50;99.90;;;;;;4970233;28;36068;-80
2022/03/12 12:30:04;;;;;;;5.45;2.47;;;13.50;99.90;;;;;;4975446;28;39956;-76
2022/03/12 12:32:31;;;;;;;6.38;2.30;;;13.50;99.90;;;;;;4963817;28;46997;-77
2022/03/12 12:35:11;;;;;;;5.63;2.40;;;13.60;99.90;;;;;;4967129;28;37947;-78
2022/03/12 12:37:49;;;;;;;3.58;2.40;;;13.50;99.90;;;;;;4968582;28;47331;-77
2022/03/12 12:40:22;;;;;;;5.82;2.08;;;13.60;99.90;;;;;;4958739;28;38611;-76
2022/03/12 12:42:51;;;;;;;6.22;2.05;;;13.50;99.90;;;;;;4949133;28;39032;-76
2022/03/12 12:45:20;;;;;;;5.32;2.00;;;13.60;99.90;;;;;;4947970;28;37038;-78
2022/03/12 12:47:46;;;;;;;3.60;1.90;;;13.70;99.90;;;;;;4956835;28;36342;-79
2022/03/12 12:50:24;;;;;;;5.30;2.10;;;14.00;99.90;;;;;;4968411;28;39150;-78
2022/03/12 12:53:14;;;;;;;6.70;2.00;;;14.20;99.90;;;;;;4974250;28;38103;-78
2022/03/12 12:55:43;;;;;;;4.65;1.60;;;14.30;99.90;;;;;;4982343;28;47478;-79
2022/03/12 12:58:09;;;;;;;5.30;1.67;;;14.00;99.90;;;;;;4984177;28;37738;-77